首页
METAR-TAF:

METAR-TAF

机场 :

Humberside, 英格兰

纬度: 53-35N, 经度: 000-21W, 海拔: 31米

当前天气观测

该预报发布于39分钟前的04:20 UTC
风速8节,风向南转西南
温度 6°C
湿度 100%
气压 1017 hPa
能見度: 8000

METAR: EGNJ 250420Z AUTO 21008KT 8000 BKN008/// OVC012/// 06/06 Q1017

时间: 04:59 (04:59 UTC)

预报

该预报发布于1小时和34分钟前的03:25 UTC
预报有效从25日的 03点(UTC)到 25日的 12点(UTC)
风速6节,风向南转西南
能见度10公里或以上
少量云层高于900英尺
多云层高于2000英尺
短暂存在
从 25日的 03点(UTC)到 25日的 09点(UTC)
能見度: 4000
多云层高于900英尺
轻雾
几率 30% :
短暂存在
从 25日的 03点(UTC)到 25日的 09点(UTC)
能見度: 2500

TAF: EGNJ 250325Z 2503/2512 21006KT 9999 FEW009 BKN020 TEMPO 2503/2509 4000 BR BKN009 PROB30 TEMPO 2503/2509 2500

超过4000个机场的气象观测和天气预报(METAR&TAF报告)。

可查询的气象台以黄色和红色小点在地图上表示。

将鼠标移到小点上方,可查看气象台名称。

然后点击查看天气观测和预报。

如需切换地图:点击带黑十字的绿色按钮放大地图;点击带横线的绿色按钮缩小地图;或者点击绿色箭头查看邻近地区的地图。


METAR-TAF: